This is the latest recevied weather packets stored in our database for station/object N7TUG-8. If no packets are shown the sender has not sent any weather packets the latest 10 day(s).
| Time | Temp. | Humidity | Pressure | Rain* | Wind** | Luminosity | Snow |
|---|---|---|---|---|---|---|---|
| 1777839591 | 21.67° C | 58% | 1012 hPa | 0 mm | 3.58 m/s, 338° | - | - |
| 1777839002 | 22.22° C | 57% | 1012.1 hPa | 0 mm | 3.13 m/s, 320° | - | - |
| 1777838661 | 22.22° C | 59% | 1012.3 hPa | 0 mm | 3.13 m/s, 336° | - | - |
| 1777837746 | 22.22° C | 59% | 1012.4 hPa | 0 mm | 2.68 m/s, 331° | - | - |
| 1777837357 | 22.22° C | 60% | 1012.5 hPa | 0 mm | 3.13 m/s, 314° | - | - |
| 1777836871 | 22.78° C | 59% | 1012.6 hPa | 0 mm | 2.68 m/s, 325° | - | - |
| 1777836492 | 22.22° C | 60% | 1012.7 hPa | 0 mm | 3.13 m/s, 331° | - | - |
| 1777836066 | 21.67° C | 60% | 1012.7 hPa | 0 mm | 3.58 m/s, 337° | - | - |
| 1777835632 | 21.67° C | 62% | 1012.8 hPa | 0 mm | 2.68 m/s, 332° | - | - |
| 1777835216 | 21.67° C | 63% | 1012.9 hPa | 0 mm | 2.68 m/s, 331° | - | - |
| 1777834326 | 21.11° C | 64% | 1013 hPa | 0 mm | 2.24 m/s, 307° | - | - |
| 1777833411 | 20.56° C | 65% | 1013 hPa | 0 mm | 2.68 m/s, 318° | - | - |
| 1777832551 | 20.56° C | 65% | 1013.3 hPa | 0 mm | 1.79 m/s, 281° | - | - |
| 1777831731 | 20.56° C | 66% | 1013.3 hPa | 0 mm | 1.79 m/s, 277° | - | - |
| 1777830901 | 19.44° C | 68% | 1013.4 hPa | 0 mm | 2.24 m/s, 276° | - | - |
| 1777830026 | 19.44° C | 68% | 1013.4 hPa | 0 mm | 2.24 m/s, 286° | - | - |
| 1777829248 | 20° C | 67% | 1013.5 hPa | 0 mm | 2.24 m/s, 317° | - | - |
| 1777828497 | 19.44° C | 69% | 1013.6 hPa | 0 mm | 2.24 m/s, 299° | - | - |
| 1777828316 | 19.44° C | 69% | 1013.6 hPa | 0 mm | 2.24 m/s, 299° | - | - |
| 1777827376 | 18.33° C | 69% | 1013.6 hPa | 0 mm | 3.58 m/s, 305° | - | - |
| 1777826877 | 18.89° C | 67% | 1013.6 hPa | 0 mm | 3.13 m/s, 295° | - | - |
| 1777826451 | 19.44° C | 67% | 1013.7 hPa | 0 mm | 2.24 m/s, 305° | - | - |
| 1777825511 | 18.89° C | 67% | 1013.7 hPa | 0 mm | 2.24 m/s, 309° | - | - |
| 1777825262 | 18.89° C | 67% | 1013.7 hPa | 0 mm | 2.24 m/s, 309° | - | - |
| 1777824572 | 18.33° C | 67% | 1013.8 hPa | 0 mm | 3.58 m/s, 323° | - | - |
* Rain latest hour (hover to see other rain measurements)
** Current wind speed in m/s (hover to see current wind gust speed)